KAY876 LICC-LMML
Flight info
| Callsign | KAY876 |
|---|---|
| Flight time | 0h 25m |
| Altitude | 14000 |
| Route | D077E D159G KEKOR RULOV SUDOX SUKAL ML361 D130B |
| Aircraft | A21N/M-SDE3FGHIRWY/LB1 |
Departure
| Time | 2026-04-28 08:08 |
|---|---|
| Airport | Catania-Fontanarossa Airport (LICC) |
Arrival
| Time | 2026-04-28 08:33 |
|---|---|
| Airport | Malta International Airport (LMML) |
| Time | Latitude | Longitude | Altitude | Speed | Heading |
|---|---|---|---|---|---|
| 2026-04-28 07:52 | 37.46960 | 15.06470 | 35 ft | 0 kts | 19° |
| 2026-04-28 08:00 | 37.46959 | 15.06470 | 35 ft | 1 kts | 19° |
| 2026-04-28 08:01 | 37.46944 | 15.06464 | 35 ft | 2 kts | 18° |
| 2026-04-28 08:01 | 37.46930 | 15.06458 | 34 ft | 2 kts | 19° |
| 2026-04-28 08:01 | 37.46916 | 15.06452 | 34 ft | 2 kts | 19° |
| 2026-04-28 08:01 | 37.46902 | 15.06446 | 33 ft | 2 kts | 19° |
| 2026-04-28 08:02 | 37.46892 | 15.06441 | 33 ft | 0 kts | 19° |
| 2026-04-28 08:03 | 37.46893 | 15.06442 | 33 ft | 0 kts | 19° |
| 2026-04-28 08:03 | 37.46897 | 15.06446 | 33 ft | 0 kts | 56° |
| 2026-04-28 08:03 | 37.46898 | 15.06449 | 33 ft | 1 kts | 59° |
| 2026-04-28 08:04 | 37.46901 | 15.06459 | 33 ft | 0 kts | 78° |
| 2026-04-28 08:04 | 37.46901 | 15.06471 | 33 ft | 4 kts | 101° |
| 2026-04-28 08:04 | 37.46875 | 15.06537 | 32 ft | 12 kts | 117° |
| 2026-04-28 08:04 | 37.46847 | 15.06666 | 30 ft | 17 kts | 84° |
| 2026-04-28 08:05 | 37.46859 | 15.06823 | 29 ft | 18 kts | 85° |
| 2026-04-28 08:05 | 37.46872 | 15.06984 | 28 ft | 19 kts | 83° |
| 2026-04-28 08:05 | 37.46886 | 15.07150 | 29 ft | 19 kts | 84° |
| 2026-04-28 08:05 | 37.46900 | 15.07315 | 30 ft | 18 kts | 83° |
| 2026-04-28 08:06 | 37.46915 | 15.07478 | 30 ft | 18 kts | 84° |
| 2026-04-28 08:06 | 37.46928 | 15.07643 | 31 ft | 18 kts | 84° |
| 2026-04-28 08:06 | 37.46940 | 15.07807 | 31 ft | 19 kts | 84° |
| 2026-04-28 08:06 | 37.46953 | 15.07972 | 31 ft | 17 kts | 84° |
| 2026-04-28 08:07 | 37.46898 | 15.08088 | 31 ft | 15 kts | 167° |
| 2026-04-28 08:07 | 37.46802 | 15.08048 | 31 ft | 15 kts | 242° |
| 2026-04-28 08:07 | 37.46761 | 15.07669 | 31 ft | 96 kts | 264° |
| 2026-04-28 08:07 | 37.46667 | 15.06408 | 214 ft | 177 kts | 265° |
| 2026-04-28 08:08 | 37.46563 | 15.04786 | 1135 ft | 202 kts | 265° |
| 2026-04-28 08:08 | 37.46431 | 15.02925 | 1990 ft | 232 kts | 264° |
| 2026-04-28 08:08 | 37.46272 | 15.00919 | 2764 ft | 234 kts | 264° |
| 2026-04-28 08:08 | 37.46101 | 14.98887 | 3610 ft | 237 kts | 264° |
| 2026-04-28 08:09 | 37.45924 | 14.96836 | 4457 ft | 239 kts | 264° |
| 2026-04-28 08:09 | 37.45746 | 14.94789 | 5302 ft | 239 kts | 264° |
| 2026-04-28 08:09 | 37.45564 | 14.92710 | 6156 ft | 243 kts | 264° |
| 2026-04-28 08:09 | 37.45375 | 14.90554 | 7020 ft | 261 kts | 264° |
| 2026-04-28 08:10 | 37.45171 | 14.88241 | 7886 ft | 273 kts | 265° |
| 2026-04-28 08:10 | 37.44960 | 14.85820 | 8736 ft | 292 kts | 265° |
| 2026-04-28 08:10 | 37.44736 | 14.83229 | 9585 ft | 309 kts | 265° |
| 2026-04-28 08:10 | 37.44501 | 14.80508 | 10428 ft | 325 kts | 265° |
| 2026-04-28 08:11 | 37.43945 | 14.77690 | 11199 ft | 342 kts | 248° |
| 2026-04-28 08:11 | 37.42555 | 14.75198 | 12098 ft | 360 kts | 226° |
| 2026-04-28 08:11 | 37.40430 | 14.73518 | 12934 ft | 376 kts | 204° |
| 2026-04-28 08:11 | 37.37790 | 14.72977 | 13616 ft | 394 kts | 183° |
| 2026-04-28 08:12 | 37.35023 | 14.73091 | 14010 ft | 408 kts | 179° |
| 2026-04-28 08:12 | 37.32117 | 14.73272 | 14070 ft | 420 kts | 179° |
| 2026-04-28 08:12 | 37.29203 | 14.73460 | 14078 ft | 422 kts | 179° |
| 2026-04-28 08:12 | 37.26257 | 14.73643 | 14064 ft | 422 kts | 179° |
| 2026-04-28 08:13 | 37.23342 | 14.73815 | 14078 ft | 422 kts | 179° |
| 2026-04-28 08:13 | 37.20420 | 14.73982 | 13997 ft | 421 kts | 179° |
| 2026-04-28 08:13 | 37.17464 | 14.74148 | 14118 ft | 421 kts | 180° |
| 2026-04-28 08:13 | 37.14566 | 14.74308 | 14125 ft | 421 kts | 180° |
| 2026-04-28 08:14 | 37.11609 | 14.74470 | 14056 ft | 421 kts | 180° |
| 2026-04-28 08:14 | 37.08707 | 14.74628 | 14021 ft | 421 kts | 180° |
| 2026-04-28 08:14 | 37.05759 | 14.74788 | 14056 ft | 421 kts | 180° |
| 2026-04-28 08:14 | 37.02860 | 14.74945 | 14064 ft | 421 kts | 180° |
| 2026-04-28 08:15 | 36.99917 | 14.75102 | 14062 ft | 421 kts | 179° |
| 2026-04-28 08:15 | 36.96967 | 14.75261 | 14069 ft | 422 kts | 180° |
| 2026-04-28 08:15 | 36.94040 | 14.75420 | 14104 ft | 422 kts | 180° |
| 2026-04-28 08:15 | 36.91114 | 14.75578 | 14097 ft | 422 kts | 180° |
| 2026-04-28 08:16 | 36.88194 | 14.75735 | 14093 ft | 422 kts | 180° |
| 2026-04-28 08:16 | 36.85269 | 14.75893 | 14110 ft | 421 kts | 180° |
| 2026-04-28 08:16 | 36.82333 | 14.76050 | 14108 ft | 421 kts | 180° |
| 2026-04-28 08:16 | 36.79407 | 14.76207 | 14065 ft | 421 kts | 180° |
| 2026-04-28 08:17 | 36.76474 | 14.76364 | 14085 ft | 421 kts | 180° |
| 2026-04-28 08:17 | 36.73553 | 14.76520 | 14063 ft | 421 kts | 180° |
| 2026-04-28 08:17 | 36.70620 | 14.76677 | 14088 ft | 421 kts | 180° |
| 2026-04-28 08:17 | 36.67671 | 14.76836 | 14084 ft | 421 kts | 180° |
| 2026-04-28 08:18 | 36.64768 | 14.76991 | 14071 ft | 422 kts | 180° |
| 2026-04-28 08:18 | 36.61835 | 14.77148 | 14076 ft | 421 kts | 180° |
| 2026-04-28 08:18 | 36.58889 | 14.77305 | 14056 ft | 421 kts | 180° |
| 2026-04-28 08:18 | 36.55976 | 14.77461 | 14070 ft | 422 kts | 180° |
| 2026-04-28 08:19 | 36.53036 | 14.77618 | 14075 ft | 421 kts | 180° |
| 2026-04-28 08:19 | 36.50088 | 14.77776 | 14062 ft | 422 kts | 180° |
| 2026-04-28 08:19 | 36.47166 | 14.77931 | 14064 ft | 422 kts | 180° |
| 2026-04-28 08:19 | 36.44228 | 14.78089 | 14057 ft | 422 kts | 180° |
| 2026-04-28 08:20 | 36.41269 | 14.78245 | 14054 ft | 422 kts | 180° |
| 2026-04-28 08:20 | 36.38373 | 14.78399 | 14054 ft | 421 kts | 180° |
| 2026-04-28 08:20 | 36.35408 | 14.78556 | 14069 ft | 421 kts | 180° |
| 2026-04-28 08:20 | 36.32486 | 14.78712 | 14057 ft | 421 kts | 180° |
| 2026-04-28 08:21 | 36.29557 | 14.78868 | 14050 ft | 421 kts | 180° |
| 2026-04-28 08:21 | 36.26644 | 14.79021 | 14023 ft | 422 kts | 180° |
| 2026-04-28 08:21 | 36.23718 | 14.79177 | 14070 ft | 422 kts | 180° |
| 2026-04-28 08:21 | 36.20764 | 14.79304 | 14052 ft | 421 kts | 183° |
| 2026-04-28 08:22 | 36.17921 | 14.78805 | 14047 ft | 416 kts | 198° |
| 2026-04-28 08:22 | 36.15266 | 14.77387 | 14070 ft | 411 kts | 213° |
| 2026-04-28 08:22 | 36.13000 | 14.75305 | 14072 ft | 408 kts | 222° |
| 2026-04-28 08:22 | 36.10847 | 14.73033 | 14054 ft | 407 kts | 224° |
| 2026-04-28 08:23 | 36.08701 | 14.70711 | 14013 ft | 406 kts | 224° |
| 2026-04-28 08:23 | 36.06619 | 14.68399 | 14040 ft | 404 kts | 227° |
| 2026-04-28 08:23 | 36.05049 | 14.65605 | 13774 ft | 391 kts | 248° |
| 2026-04-28 08:23 | 36.04452 | 14.62432 | 13302 ft | 374 kts | 266° |
| 2026-04-28 08:24 | 36.04627 | 14.59303 | 12712 ft | 362 kts | 282° |
| 2026-04-28 08:24 | 36.05400 | 14.56448 | 12116 ft | 346 kts | 292° |
| 2026-04-28 08:24 | 36.06344 | 14.53756 | 11454 ft | 332 kts | 293° |
| 2026-04-28 08:24 | 36.07233 | 14.51207 | 10837 ft | 316 kts | 293° |
| 2026-04-28 08:25 | 36.08053 | 14.48792 | 10280 ft | 303 kts | 292° |
| 2026-04-28 08:25 | 36.08838 | 14.46427 | 9642 ft | 291 kts | 292° |
| 2026-04-28 08:25 | 36.09581 | 14.44167 | 9007 ft | 279 kts | 292° |
| 2026-04-28 08:26 | 36.10547 | 14.39786 | 7782 ft | 262 kts | 261° |
| 2026-04-28 08:26 | 36.09760 | 14.37813 | 7153 ft | 258 kts | 229° |
| 2026-04-28 08:26 | 36.08470 | 14.36352 | 6634 ft | 249 kts | 223° |
| 2026-04-28 08:26 | 36.07195 | 14.34972 | 6166 ft | 240 kts | 223° |
| 2026-04-28 08:27 | 36.05981 | 14.33602 | 5704 ft | 234 kts | 224° |
| 2026-04-28 08:27 | 36.04820 | 14.32245 | 5232 ft | 229 kts | 224° |
| 2026-04-28 08:27 | 36.03697 | 14.30903 | 4768 ft | 224 kts | 224° |
| 2026-04-28 08:27 | 36.02554 | 14.29598 | 4295 ft | 220 kts | 214° |
| 2026-04-28 08:28 | 36.01150 | 14.29102 | 3960 ft | 208 kts | 171° |
| 2026-04-28 08:28 | 35.99910 | 14.29812 | 3708 ft | 195 kts | 136° |
| 2026-04-28 08:28 | 35.99011 | 14.31006 | 3470 ft | 188 kts | 130° |
| 2026-04-28 08:28 | 35.98160 | 14.32227 | 3324 ft | 181 kts | 130° |
| 2026-04-28 08:29 | 35.97349 | 14.33330 | 3075 ft | 166 kts | 132° |
| 2026-04-28 08:29 | 35.96572 | 14.34340 | 3001 ft | 163 kts | 133° |
| 2026-04-28 08:29 | 35.95784 | 14.35339 | 2968 ft | 163 kts | 133° |
| 2026-04-28 08:29 | 35.94981 | 14.36342 | 2790 ft | 162 kts | 133° |
| 2026-04-28 08:30 | 35.94195 | 14.37318 | 2587 ft | 160 kts | 133° |
| 2026-04-28 08:30 | 35.93416 | 14.38280 | 2379 ft | 159 kts | 133° |
| 2026-04-28 08:30 | 35.92640 | 14.39239 | 2171 ft | 158 kts | 132° |
| 2026-04-28 08:30 | 35.91865 | 14.40196 | 1965 ft | 156 kts | 133° |
| 2026-04-28 08:31 | 35.91101 | 14.41140 | 1758 ft | 155 kts | 133° |
| 2026-04-28 08:31 | 35.90335 | 14.42085 | 1551 ft | 154 kts | 132° |
| 2026-04-28 08:31 | 35.89579 | 14.43018 | 1350 ft | 152 kts | 132° |
| 2026-04-28 08:31 | 35.88855 | 14.43914 | 1146 ft | 142 kts | 132° |
| 2026-04-28 08:32 | 35.88198 | 14.44720 | 980 ft | 128 kts | 131° |
| 2026-04-28 08:32 | 35.87583 | 14.45457 | 754 ft | 120 kts | 132° |
| 2026-04-28 08:32 | 35.87002 | 14.46201 | 653 ft | 119 kts | 131° |
| 2026-04-28 08:32 | 35.86418 | 14.46929 | 508 ft | 123 kts | 131° |
| 2026-04-28 08:33 | 35.85819 | 14.47668 | 366 ft | 123 kts | 131° |
| 2026-04-28 08:33 | 35.85229 | 14.48407 | 270 ft | 102 kts | 135° |
| 2026-04-28 08:33 | 35.84910 | 14.48799 | 266 ft | 45 kts | 136° |
| 2026-04-28 08:33 | 35.84784 | 14.48953 | 263 ft | 17 kts | 120° |
| 2026-04-28 08:34 | 35.84816 | 14.49001 | 263 ft | 10 kts | 340° |
| 2026-04-28 08:34 | 35.84889 | 14.48978 | 262 ft | 11 kts | 7° |
| 2026-04-28 08:34 | 35.84972 | 14.48982 | 262 ft | 12 kts | 333° |
| 2026-04-28 08:34 | 35.84997 | 14.48933 | 263 ft | 8 kts | 296° |
| 2026-04-28 08:35 | 35.85144 | 14.48766 | 270 ft | 38 kts | 318° |
| 2026-04-28 08:35 | 35.85341 | 14.48523 | 271 ft | 38 kts | 315° |
| 2026-04-28 08:35 | 35.85527 | 14.48307 | 268 ft | 32 kts | 313° |
| 2026-04-28 08:35 | 35.85718 | 14.48203 | 265 ft | 31 kts | 349° |
| 2026-04-28 08:36 | 35.85900 | 14.48161 | 266 ft | 21 kts | 349° |
| 2026-04-28 08:36 | 35.85994 | 14.48053 | 267 ft | 21 kts | 263° |
| 2026-04-28 08:36 | 35.85939 | 14.47881 | 267 ft | 22 kts | 249° |
| 2026-04-28 08:36 | 35.85882 | 14.47691 | 263 ft | 24 kts | 248° |
| 2026-04-28 08:37 | 35.85809 | 14.47501 | 267 ft | 23 kts | 233° |
| 2026-04-28 08:37 | 35.85717 | 14.47353 | 274 ft | 18 kts | 231° |
| 2026-04-28 08:37 | 35.85670 | 14.47275 | 274 ft | 6 kts | 261° |
| 2026-04-28 08:37 | 35.85689 | 14.47233 | 272 ft | 5 kts | 303° |
| 2026-04-28 08:38 | 35.85685 | 14.47221 | 271 ft | 0 kts | 146° |
| 2026-04-28 08:38 | 35.85688 | 14.47218 | 271 ft | 0 kts | 145° |